sensor_id;sensor_type;location;lat;lon;timestamp;pressure;altitude;pressure_sealevel;temperature;humidity
69911;BME280;63555;49.920;17.868;2023-08-06T00:03:17;97530.31;;;15.09;98.28
69911;BME280;63555;49.920;17.868;2023-08-06T00:08:17;97512.91;;;15.06;98.29
69911;BME280;63555;49.920;17.868;2023-08-06T00:13:17;97507.41;;;15.08;98.58
69911;BME280;63555;49.920;17.868;2023-08-06T00:18:18;97499.44;;;15.08;98.57
69911;BME280;63555;49.920;17.868;2023-08-06T00:23:18;97471.88;;;15.09;98.55
69911;BME280;63555;49.920;17.868;2023-08-06T00:28:21;97470.25;;;15.08;98.46
69911;BME280;63555;49.920;17.868;2023-08-06T00:33:22;97455.31;;;15.07;98.83
69911;BME280;63555;49.920;17.868;2023-08-06T00:38:23;97453.66;;;15.06;98.62
69911;BME280;63555;49.920;17.868;2023-08-06T00:43:23;97418.97;;;15.07;98.51
69911;BME280;63555;49.920;17.868;2023-08-06T00:48:24;97392.78;;;15.04;98.73
69911;BME280;63555;49.920;17.868;2023-08-06T00:53:24;97376.00;;;15.04;98.55
69911;BME280;63555;49.920;17.868;2023-08-06T00:58:25;97363.91;;;15.01;98.45
69911;BME280;63555;49.920;17.868;2023-08-06T01:03:26;97330.41;;;15.00;98.35
69911;BME280;63555;49.920;17.868;2023-08-06T01:13:47;97301.28;;;14.92;98.38
69911;BME280;63555;49.920;17.868;2023-08-06T01:18:49;97274.75;;;14.92;98.31
69911;BME280;63555;49.920;17.868;2023-08-06T01:23:50;97260.63;;;14.91;98.43
69911;BME280;63555;49.920;17.868;2023-08-06T01:28:59;97277.75;;;14.89;98.11
69911;BME280;63555;49.920;17.868;2023-08-06T01:34:05;97266.78;;;14.92;98.25
69911;BME280;63555;49.920;17.868;2023-08-06T01:39:06;97275.38;;;14.94;98.35
69911;BME280;63555;49.920;17.868;2023-08-06T01:44:06;97253.16;;;14.95;98.35
69911;BME280;63555;49.920;17.868;2023-08-06T01:49:07;97233.56;;;14.96;98.09
69911;BME280;63555;49.920;17.868;2023-08-06T01:54:07;97231.91;;;14.95;98.25
69911;BME280;63555;49.920;17.868;2023-08-06T01:59:08;97222.13;;;14.95;98.12
69911;BME280;63555;49.920;17.868;2023-08-06T02:04:08;97209.31;;;14.99;97.94
69911;BME280;63555;49.920;17.868;2023-08-06T02:09:08;97197.03;;;14.98;98.15
69911;BME280;63555;49.920;17.868;2023-08-06T02:14:09;97197.03;;;14.98;97.84
69911;BME280;63555;49.920;17.868;2023-08-06T02:19:09;97183.75;;;14.98;97.83
69911;BME280;63555;49.920;17.868;2023-08-06T02:24:09;97169.31;;;15.01;97.85
69911;BME280;63555;49.920;17.868;2023-08-06T02:29:10;97151.53;;;15.01;97.93
69911;BME280;63555;49.920;17.868;2023-08-06T02:34:10;97139.72;;;15.04;97.93
69911;BME280;63555;49.920;17.868;2023-08-06T02:39:10;97147.31;;;15.07;97.98
69911;BME280;63555;49.920;17.868;2023-08-06T02:44:11;97158.41;;;15.10;98.00
69911;BME280;63555;49.920;17.868;2023-08-06T02:49:11;97158.03;;;15.13;98.04
69911;BME280;63555;49.920;17.868;2023-08-06T02:54:12;97157.66;;;15.16;97.86
69911;BME280;63555;49.920;17.868;2023-08-06T02:59:12;97160.78;;;15.20;97.76
69911;BME280;63555;49.920;17.868;2023-08-06T03:04:13;97166.91;;;15.20;97.55
69911;BME280;63555;49.920;17.868;2023-08-06T03:09:13;97164.25;;;15.20;97.71
69911;BME280;63555;49.920;17.868;2023-08-06T03:14:14;97175.88;;;15.19;97.63
69911;BME280;63555;49.920;17.868;2023-08-06T03:19:14;97168.38;;;15.08;97.36
69911;BME280;63555;49.920;17.868;2023-08-06T03:24:14;97174.34;;;14.95;97.54
69911;BME280;63555;49.920;17.868;2023-08-06T03:29:15;97177.53;;;14.91;98.19
69911;BME280;63555;49.920;17.868;2023-08-06T03:34:15;97165.63;;;14.87;98.39
69911;BME280;63555;49.920;17.868;2023-08-06T03:39:16;97165.81;;;14.85;98.50
69911;BME280;63555;49.920;17.868;2023-08-06T03:44:16;97169.84;;;14.81;98.53
69911;BME280;63555;49.920;17.868;2023-08-06T03:49:16;97171.03;;;14.79;98.69
69911;BME280;63555;49.920;17.868;2023-08-06T03:54:17;97162.25;;;14.78;99.18
69911;BME280;63555;49.920;17.868;2023-08-06T03:59:17;97181.88;;;14.69;99.20
69911;BME280;63555;49.920;17.868;2023-08-06T04:04:18;97170.97;;;14.64;100.00
69911;BME280;63555;49.920;17.868;2023-08-06T04:09:18;97156.13;;;14.55;100.00
69911;BME280;63555;49.920;17.868;2023-08-06T04:14:19;97164.63;;;14.50;100.00
69911;BME280;63555;49.920;17.868;2023-08-06T04:19:19;97169.00;;;14.43;100.00
69911;BME280;63555;49.920;17.868;2023-08-06T04:24:19;97160.09;;;14.36;100.00
69911;BME280;63555;49.920;17.868;2023-08-06T04:29:20;97143.59;;;14.26;100.00
69911;BME280;63555;49.920;17.868;2023-08-06T04:34:20;97132.25;;;14.17;100.00
69911;BME280;63555;49.920;17.868;2023-08-06T04:39:20;97124.81;;;14.13;100.00
69911;BME280;63555;49.920;17.868;2023-08-06T04:44:21;97132.66;;;14.06;100.00
69911;BME280;63555;49.920;17.868;2023-08-06T04:49:21;97135.84;;;14.01;100.00
69911;BME280;63555;49.920;17.868;2023-08-06T04:54:22;97135.03;;;14.01;100.00
69911;BME280;63555;49.920;17.868;2023-08-06T04:59:22;97125.44;;;14.00;100.00
69911;BME280;63555;49.920;17.868;2023-08-06T05:04:22;97135.50;;;14.05;100.00
69911;BME280;63555;49.920;17.868;2023-08-06T05:09:23;97128.78;;;13.94;100.00
69911;BME280;63555;49.920;17.868;2023-08-06T05:14:23;97125.97;;;13.95;100.00
69911;BME280;63555;49.920;17.868;2023-08-06T05:19:24;97120.84;;;13.94;100.00
69911;BME280;63555;49.920;17.868;2023-08-06T05:24:24;97106.69;;;14.01;100.00
69911;BME280;63555;49.920;17.868;2023-08-06T05:29:24;97110.16;;;14.02;100.00
69911;BME280;63555;49.920;17.868;2023-08-06T05:34:25;97107.69;;;14.00;100.00
69911;BME280;63555;49.920;17.868;2023-08-06T05:39:25;97095.50;;;13.91;100.00
69911;BME280;63555;49.920;17.868;2023-08-06T05:44:25;97094.63;;;13.99;100.00
69911;BME280;63555;49.920;17.868;2023-08-06T05:49:26;97101.22;;;14.03;100.00
69911;BME280;63555;49.920;17.868;2023-08-06T05:54:26;97099.63;;;13.94;100.00
69911;BME280;63555;49.920;17.868;2023-08-06T05:59:26;97102.16;;;13.87;100.00
69911;BME280;63555;49.920;17.868;2023-08-06T06:04:28;97102.84;;;13.81;100.00
69911;BME280;63555;49.920;17.868;2023-08-06T06:09:28;97089.44;;;13.83;100.00
69911;BME280;63555;49.920;17.868;2023-08-06T06:14:28;97089.91;;;13.86;100.00
69911;BME280;63555;49.920;17.868;2023-08-06T06:19:29;97086.59;;;13.84;100.00
69911;BME280;63555;49.920;17.868;2023-08-06T06:24:29;97093.72;;;13.84;100.00
69911;BME280;63555;49.920;17.868;2023-08-06T06:29:30;97082.84;;;13.79;100.00
69911;BME280;63555;49.920;17.868;2023-08-06T06:34:30;97081.13;;;13.86;100.00
69911;BME280;63555;49.920;17.868;2023-08-06T06:39:31;97072.53;;;13.84;100.00
69911;BME280;63555;49.920;17.868;2023-08-06T06:44:31;97070.06;;;13.82;100.00
69911;BME280;63555;49.920;17.868;2023-08-06T06:49:32;97074.00;;;13.86;100.00
69911;BME280;63555;49.920;17.868;2023-08-06T06:54:32;97080.81;;;13.81;100.00
69911;BME280;63555;49.920;17.868;2023-08-06T06:59:32;97082.19;;;13.77;100.00
69911;BME280;63555;49.920;17.868;2023-08-06T07:04:33;97091.44;;;13.81;100.00
69911;BME280;63555;49.920;17.868;2023-08-06T07:09:33;97090.66;;;13.72;100.00
69911;BME280;63555;49.920;17.868;2023-08-06T07:14:33;97082.38;;;13.75;100.00
69911;BME280;63555;49.920;17.868;2023-08-06T07:19:34;97082.84;;;13.79;100.00
69911;BME280;63555;49.920;17.868;2023-08-06T07:24:34;97087.09;;;13.88;100.00
69911;BME280;63555;49.920;17.868;2023-08-06T07:29:34;97079.63;;;13.91;100.00
69911;BME280;63555;49.920;17.868;2023-08-06T07:34:35;97087.03;;;13.96;100.00
69911;BME280;63555;49.920;17.868;2023-08-06T07:39:35;97083.50;;;14.03;100.00
69911;BME280;63555;49.920;17.868;2023-08-06T07:44:38;97086.13;;;14.03;100.00
69911;BME280;63555;49.920;17.868;2023-08-06T07:49:38;97085.50;;;14.01;100.00
69911;BME280;63555;49.920;17.868;2023-08-06T07:54:38;97092.25;;;14.04;100.00
69911;BME280;63555;49.920;17.868;2023-08-06T07:59:39;97084.59;;;14.09;100.00
69911;BME280;63555;49.920;17.868;2023-08-06T08:04:39;97069.44;;;14.18;100.00
69911;BME280;63555;49.920;17.868;2023-08-06T08:09:40;97080.13;;;14.10;100.00
69911;BME280;63555;49.920;17.868;2023-08-06T08:14:40;97092.91;;;14.06;100.00
69911;BME280;63555;49.920;17.868;2023-08-06T08:19:40;97098.22;;;14.06;100.00
69911;BME280;63555;49.920;17.868;2023-08-06T08:24:41;97094.28;;;14.02;100.00
69911;BME280;63555;49.920;17.868;2023-08-06T08:29:41;97086.06;;;14.12;100.00
69911;BME280;63555;49.920;17.868;2023-08-06T08:34:41;97091.28;;;14.20;100.00
69911;BME280;63555;49.920;17.868;2023-08-06T08:39:42;97085.34;;;14.18;100.00
69911;BME280;63555;49.920;17.868;2023-08-06T08:44:43;97079.16;;;14.25;100.00
69911;BME280;63555;49.920;17.868;2023-08-06T08:49:44;97074.59;;;14.34;100.00
69911;BME280;63555;49.920;17.868;2023-08-06T08:54:45;97064.91;;;14.41;100.00
69911;BME280;63555;49.920;17.868;2023-08-06T08:59:49;97058.91;;;14.47;100.00
69911;BME280;63555;49.920;17.868;2023-08-06T09:04:50;97047.47;;;14.61;100.00
69911;BME280;63555;49.920;17.868;2023-08-06T09:09:52;97039.41;;;14.70;100.00
69911;BME280;63555;49.920;17.868;2023-08-06T09:14:54;97053.06;;;14.81;100.00
69911;BME280;63555;49.920;17.868;2023-08-06T09:19:54;97062.03;;;14.95;100.00
69911;BME280;63555;49.920;17.868;2023-08-06T09:24:55;97065.78;;;14.86;100.00
69911;BME280;63555;49.920;17.868;2023-08-06T09:29:57;97069.38;;;14.78;100.00
69911;BME280;63555;49.920;17.868;2023-08-06T09:34:57;97060.03;;;14.82;100.00
69911;BME280;63555;49.920;17.868;2023-08-06T09:39:57;97045.56;;;14.85;100.00
69911;BME280;63555;49.920;17.868;2023-08-06T09:45:06;97061.09;;;15.03;100.00
69911;BME280;63555;49.920;17.868;2023-08-06T09:50:18;97050.91;;;15.21;100.00
69911;BME280;63555;49.920;17.868;2023-08-06T09:55:19;97061.03;;;15.32;100.00
69911;BME280;63555;49.920;17.868;2023-08-06T10:00:20;97059.94;;;15.26;100.00
69911;BME280;63555;49.920;17.868;2023-08-06T10:05:21;97069.53;;;15.42;100.00
69911;BME280;63555;49.920;17.868;2023-08-06T10:10:22;97072.28;;;15.34;100.00
69911;BME280;63555;49.920;17.868;2023-08-06T10:15:27;97073.06;;;15.13;100.00
69911;BME280;63555;49.920;17.868;2023-08-06T10:20:33;97080.78;;;15.08;100.00
69911;BME280;63555;49.920;17.868;2023-08-06T10:25:35;97085.53;;;15.13;100.00
69911;BME280;63555;49.920;17.868;2023-08-06T10:30:45;97084.91;;;14.96;100.00
69911;BME280;63555;49.920;17.868;2023-08-06T10:35:48;97095.16;;;14.99;100.00
69911;BME280;63555;49.920;17.868;2023-08-06T10:45:54;97113.38;;;15.02;100.00
69911;BME280;63555;49.920;17.868;2023-08-06T10:50:55;97118.88;;;15.01;100.00
69911;BME280;63555;49.920;17.868;2023-08-06T10:55:56;97111.53;;;15.17;100.00
69911;BME280;63555;49.920;17.868;2023-08-06T11:00:56;97113.16;;;15.33;100.00
69911;BME280;63555;49.920;17.868;2023-08-06T11:05:57;97129.41;;;15.45;100.00
69911;BME280;63555;49.920;17.868;2023-08-06T11:11:08;97128.94;;;15.56;100.00
69911;BME280;63555;49.920;17.868;2023-08-06T11:16:11;97138.41;;;15.44;100.00
69911;BME280;63555;49.920;17.868;2023-08-06T11:21:11;97136.31;;;15.24;100.00
69911;BME280;63555;49.920;17.868;2023-08-06T11:26:12;97148.22;;;15.28;100.00
69911;BME280;63555;49.920;17.868;2023-08-06T11:31:22;97155.75;;;15.25;100.00
69911;BME280;63555;49.920;17.868;2023-08-06T11:41:31;97166.56;;;14.94;100.00
69911;BME280;63555;49.920;17.868;2023-08-06T11:46:54;97172.03;;;14.92;100.00
69911;BME280;63555;49.920;17.868;2023-08-06T11:51:59;97169.66;;;14.97;100.00
69911;BME280;63555;49.920;17.868;2023-08-06T11:57:00;97175.16;;;15.11;100.00
69911;BME280;63555;49.920;17.868;2023-08-06T12:02:07;97181.75;;;15.29;100.00
69911;BME280;63555;49.920;17.868;2023-08-06T12:07:08;97194.47;;;15.34;100.00
69911;BME280;63555;49.920;17.868;2023-08-06T12:12:09;97198.78;;;15.35;100.00
69911;BME280;63555;49.920;17.868;2023-08-06T12:17:09;97203.91;;;15.37;100.00
69911;BME280;63555;49.920;17.868;2023-08-06T12:22:09;97223.69;;;15.34;100.00
69911;BME280;63555;49.920;17.868;2023-08-06T12:27:10;97227.81;;;15.22;100.00
69911;BME280;63555;49.920;17.868;2023-08-06T12:32:11;97222.50;;;15.07;100.00
69911;BME280;63555;49.920;17.868;2023-08-06T12:37:12;97226.72;;;15.16;100.00
69911;BME280;63555;49.920;17.868;2023-08-06T12:42:13;97232.75;;;15.40;100.00
69911;BME280;63555;49.920;17.868;2023-08-06T12:47:13;97232.03;;;15.46;100.00
69911;BME280;63555;49.920;17.868;2023-08-06T12:52:14;97239.03;;;15.62;100.00
69911;BME280;63555;49.920;17.868;2023-08-06T12:57:15;97224.78;;;15.84;100.00
69911;BME280;63555;49.920;17.868;2023-08-06T13:02:15;97224.25;;;16.10;100.00
69911;BME280;63555;49.920;17.868;2023-08-06T13:07:16;97221.34;;;16.05;100.00
69911;BME280;63555;49.920;17.868;2023-08-06T13:12:16;97216.03;;;16.26;100.00
69911;BME280;63555;49.920;17.868;2023-08-06T13:17:19;97201.16;;;16.53;100.00
69911;BME280;63555;49.920;17.868;2023-08-06T13:22:19;97186.06;;;16.39;100.00
69911;BME280;63555;49.920;17.868;2023-08-06T13:27:19;97192.91;;;16.27;100.00
69911;BME280;63555;49.920;17.868;2023-08-06T13:32:20;97203.97;;;16.94;100.00
69911;BME280;63555;49.920;17.868;2023-08-06T13:37:20;97197.78;;;17.49;100.00
69911;BME280;63555;49.920;17.868;2023-08-06T13:42:20;97209.41;;;17.76;100.00
69911;BME280;63555;49.920;17.868;2023-08-06T13:47:21;97221.78;;;17.97;100.00
69911;BME280;63555;49.920;17.868;2023-08-06T13:52:22;97213.22;;;18.15;100.00
69911;BME280;63555;49.920;17.868;2023-08-06T13:57:22;97210.50;;;17.95;100.00
69911;BME280;63555;49.920;17.868;2023-08-06T14:02:23;97211.47;;;17.81;100.00
69911;BME280;63555;49.920;17.868;2023-08-06T14:07:23;97219.34;;;17.61;100.00
69911;BME280;63555;49.920;17.868;2023-08-06T14:12:23;97220.13;;;17.48;100.00
69911;BME280;63555;49.920;17.868;2023-08-06T14:17:24;97215.53;;;17.36;100.00
69911;BME280;63555;49.920;17.868;2023-08-06T14:22:25;97228.88;;;17.36;100.00
69911;BME280;63555;49.920;17.868;2023-08-06T14:27:25;97253.06;;;17.13;100.00
69911;BME280;63555;49.920;17.868;2023-08-06T14:32:26;97257.34;;;17.07;100.00
69911;BME280;63555;49.920;17.868;2023-08-06T14:37:26;97262.44;;;17.02;100.00
69911;BME280;63555;49.920;17.868;2023-08-06T14:42:26;97259.31;;;16.99;100.00
69911;BME280;63555;49.920;17.868;2023-08-06T14:47:27;97270.47;;;17.09;100.00
69911;BME280;63555;49.920;17.868;2023-08-06T14:52:27;97276.19;;;17.06;100.00
69911;BME280;63555;49.920;17.868;2023-08-06T14:57:28;97279.75;;;16.92;100.00
69911;BME280;63555;49.920;17.868;2023-08-06T15:02:29;97294.47;;;16.87;100.00
69911;BME280;63555;49.920;17.868;2023-08-06T15:07:30;97294.59;;;16.79;100.00
69911;BME280;63555;49.920;17.868;2023-08-06T15:12:33;97296.13;;;16.67;100.00
69911;BME280;63555;49.920;17.868;2023-08-06T15:17:33;97298.91;;;16.44;100.00
69911;BME280;63555;49.920;17.868;2023-08-06T15:22:34;97304.47;;;16.28;100.00
69911;BME280;63555;49.920;17.868;2023-08-06T15:27:34;97305.03;;;16.23;100.00
69911;BME280;63555;49.920;17.868;2023-08-06T15:32:35;97318.50;;;16.22;100.00
69911;BME280;63555;49.920;17.868;2023-08-06T15:37:35;97311.16;;;16.24;100.00
69911;BME280;63555;49.920;17.868;2023-08-06T15:42:36;97325.94;;;16.12;100.00
69911;BME280;63555;49.920;17.868;2023-08-06T15:47:36;97326.44;;;16.01;100.00
69911;BME280;63555;49.920;17.868;2023-08-06T15:52:40;97334.69;;;15.76;100.00
69911;BME280;63555;49.920;17.868;2023-08-06T15:57:40;97338.34;;;15.60;100.00
69911;BME280;63555;49.920;17.868;2023-08-06T16:02:41;97340.69;;;15.55;100.00
69911;BME280;63555;49.920;17.868;2023-08-06T16:07:41;97348.00;;;15.53;100.00
69911;BME280;63555;49.920;17.868;2023-08-06T16:12:42;97340.66;;;15.41;100.00
69911;BME280;63555;49.920;17.868;2023-08-06T16:17:42;97343.94;;;15.28;100.00
69911;BME280;63555;49.920;17.868;2023-08-06T16:22:43;97338.22;;;15.16;100.00
69911;BME280;63555;49.920;17.868;2023-08-06T16:27:43;97347.75;;;15.11;100.00
69911;BME280;63555;49.920;17.868;2023-08-06T16:32:44;97358.19;;;15.12;100.00
69911;BME280;63555;49.920;17.868;2023-08-06T16:37:45;97371.25;;;14.99;100.00
69911;BME280;63555;49.920;17.868;2023-08-06T16:42:47;97375.78;;;14.90;100.00
69911;BME280;63555;49.920;17.868;2023-08-06T16:47:48;97377.13;;;14.86;100.00
69911;BME280;63555;49.920;17.868;2023-08-06T16:52:49;97387.63;;;14.80;100.00
69911;BME280;63555;49.920;17.868;2023-08-06T16:57:50;97390.66;;;14.69;100.00
69911;BME280;63555;49.920;17.868;2023-08-06T17:02:51;97396.03;;;14.60;100.00
69911;BME280;63555;49.920;17.868;2023-08-06T17:07:51;97395.41;;;14.50;100.00
69911;BME280;63555;49.920;17.868;2023-08-06T17:12:52;97406.72;;;14.36;100.00
69911;BME280;63555;49.920;17.868;2023-08-06T17:17:53;97408.59;;;14.27;100.00
69911;BME280;63555;49.920;17.868;2023-08-06T17:22:54;97407.97;;;14.17;100.00
69911;BME280;63555;49.920;17.868;2023-08-06T17:27:54;97422.91;;;14.10;100.00
69911;BME280;63555;49.920;17.868;2023-08-06T17:32:54;97427.41;;;14.01;100.00
69911;BME280;63555;49.920;17.868;2023-08-06T17:37:55;97435.03;;;13.96;100.00
69911;BME280;63555;49.920;17.868;2023-08-06T17:42:57;97441.03;;;13.90;100.00
69911;BME280;63555;49.920;17.868;2023-08-06T17:47:58;97440.00;;;13.83;100.00
69911;BME280;63555;49.920;17.868;2023-08-06T17:52:59;97444.34;;;13.76;100.00
69911;BME280;63555;49.920;17.868;2023-08-06T17:57:59;97446.16;;;13.67;100.00
69911;BME280;63555;49.920;17.868;2023-08-06T18:03:00;97446.66;;;13.63;100.00
69911;BME280;63555;49.920;17.868;2023-08-06T18:08:00;97448.34;;;13.56;100.00
69911;BME280;63555;49.920;17.868;2023-08-06T18:13:01;97439.06;;;13.52;100.00
69911;BME280;63555;49.920;17.868;2023-08-06T18:18:01;97458.09;;;13.47;100.00
69911;BME280;63555;49.920;17.868;2023-08-06T18:23:01;97454.78;;;13.45;100.00
69911;BME280;63555;49.920;17.868;2023-08-06T18:28:02;97457.13;;;13.40;100.00
69911;BME280;63555;49.920;17.868;2023-08-06T18:33:03;97463.41;;;13.39;100.00
69911;BME280;63555;49.920;17.868;2023-08-06T18:38:03;97469.19;;;13.34;100.00
69911;BME280;63555;49.920;17.868;2023-08-06T18:43:04;97477.47;;;13.31;100.00
69911;BME280;63555;49.920;17.868;2023-08-06T18:48:07;97484.25;;;13.26;100.00
69911;BME280;63555;49.920;17.868;2023-08-06T18:53:08;97485.25;;;13.25;100.00
69911;BME280;63555;49.920;17.868;2023-08-06T18:58:08;97494.34;;;13.22;100.00
69911;BME280;63555;49.920;17.868;2023-08-06T19:03:10;97488.69;;;13.17;100.00
69911;BME280;63555;49.920;17.868;2023-08-06T19:08:10;97492.81;;;13.12;100.00
69911;BME280;63555;49.920;17.868;2023-08-06T19:13:11;97501.06;;;13.08;100.00
69911;BME280;63555;49.920;17.868;2023-08-06T19:18:12;97488.81;;;13.07;100.00
69911;BME280;63555;49.920;17.868;2023-08-06T19:23:12;97488.00;;;13.07;100.00
69911;BME280;63555;49.920;17.868;2023-08-06T19:28:17;97474.59;;;13.00;100.00
69911;BME280;63555;49.920;17.868;2023-08-06T19:33:19;97469.75;;;12.96;100.00
69911;BME280;63555;49.920;17.868;2023-08-06T19:38:22;97478.84;;;12.93;100.00
69911;BME280;63555;49.920;17.868;2023-08-06T19:43:23;97472.38;;;12.88;100.00
69911;BME280;63555;49.920;17.868;2023-08-06T19:48:23;97466.41;;;12.86;100.00
69911;BME280;63555;49.920;17.868;2023-08-06T19:53:24;97467.56;;;12.83;100.00
69911;BME280;63555;49.920;17.868;2023-08-06T19:58:27;97462.44;;;12.82;100.00
69911;BME280;63555;49.920;17.868;2023-08-06T20:03:27;97458.16;;;12.81;100.00
69911;BME280;63555;49.920;17.868;2023-08-06T20:08:31;97452.03;;;12.80;100.00
69911;BME280;63555;49.920;17.868;2023-08-06T20:13:32;97454.84;;;12.79;100.00
69911;BME280;63555;49.920;17.868;2023-08-06T20:18:33;97449.53;;;12.79;100.00
69911;BME280;63555;49.920;17.868;2023-08-06T20:23:33;97456.50;;;12.80;100.00
69911;BME280;63555;49.920;17.868;2023-08-06T20:28:34;97457.81;;;12.84;100.00
69911;BME280;63555;49.920;17.868;2023-08-06T20:33:34;97460.13;;;12.87;100.00
69911;BME280;63555;49.920;17.868;2023-08-06T20:38:35;97461.13;;;12.86;100.00
69911;BME280;63555;49.920;17.868;2023-08-06T20:43:36;97465.59;;;12.85;100.00
69911;BME280;63555;49.920;17.868;2023-08-06T20:48:36;97465.59;;;12.85;100.00
69911;BME280;63555;49.920;17.868;2023-08-06T20:53:37;97473.84;;;12.82;100.00
69911;BME280;63555;49.920;17.868;2023-08-06T20:58:37;97474.53;;;12.84;100.00
69911;BME280;63555;49.920;17.868;2023-08-06T21:03:37;97480.63;;;12.85;100.00
69911;BME280;63555;49.920;17.868;2023-08-06T21:08:38;97481.16;;;12.88;100.00
69911;BME280;63555;49.920;17.868;2023-08-06T21:13:38;97481.97;;;12.89;100.00
69911;BME280;63555;49.920;17.868;2023-08-06T21:18:39;97484.78;;;12.87;100.00
69911;BME280;63555;49.920;17.868;2023-08-06T21:23:39;97491.06;;;12.86;100.00
69911;BME280;63555;49.920;17.868;2023-08-06T21:28:41;97493.53;;;12.88;100.00
69911;BME280;63555;49.920;17.868;2023-08-06T21:33:41;97498.69;;;12.89;100.00
69911;BME280;63555;49.920;17.868;2023-08-06T21:38:43;97505.78;;;12.89;100.00
69911;BME280;63555;49.920;17.868;2023-08-06T21:43:47;97497.03;;;12.88;100.00
69911;BME280;63555;49.920;17.868;2023-08-06T21:48:49;97494.38;;;12.88;100.00
69911;BME280;63555;49.920;17.868;2023-08-06T21:53:49;97482.81;;;12.89;100.00
69911;BME280;63555;49.920;17.868;2023-08-06T21:58:50;97478.50;;;12.88;100.00
69911;BME280;63555;49.920;17.868;2023-08-06T22:03:52;97472.88;;;12.91;100.00
69911;BME280;63555;49.920;17.868;2023-08-06T22:08:52;97465.78;;;12.92;100.00
69911;BME280;63555;49.920;17.868;2023-08-06T22:13:53;97471.91;;;12.92;100.00
69911;BME280;63555;49.920;17.868;2023-08-06T22:18:53;97460.81;;;12.89;100.00
69911;BME280;63555;49.920;17.868;2023-08-06T22:23:54;97449.72;;;12.85;100.00
69911;BME280;63555;49.920;17.868;2023-08-06T22:28:54;97448.22;;;12.83;100.00
69911;BME280;63555;49.920;17.868;2023-08-06T22:33:55;97446.06;;;12.78;100.00
69911;BME280;63555;49.920;17.868;2023-08-06T22:38:55;97443.75;;;12.75;100.00
69911;BME280;63555;49.920;17.868;2023-08-06T22:43:55;97442.75;;;12.76;100.00
69911;BME280;63555;49.920;17.868;2023-08-06T22:48:56;97427.56;;;12.78;100.00
69911;BME280;63555;49.920;17.868;2023-08-06T22:53:56;97421.09;;;12.81;100.00
69911;BME280;63555;49.920;17.868;2023-08-06T22:58:56;97438.47;;;12.83;100.00
69911;BME280;63555;49.920;17.868;2023-08-06T23:03:57;97433.84;;;12.85;100.00
69911;BME280;63555;49.920;17.868;2023-08-06T23:08:57;97429.38;;;12.86;100.00
69911;BME280;63555;49.920;17.868;2023-08-06T23:13:57;97430.22;;;12.86;100.00
69911;BME280;63555;49.920;17.868;2023-08-06T23:18:58;97439.63;;;12.89;100.00
69911;BME280;63555;49.920;17.868;2023-08-06T23:23:59;97433.19;;;12.91;100.00
69911;BME280;63555;49.920;17.868;2023-08-06T23:28:59;97429.56;;;12.92;100.00
69911;BME280;63555;49.920;17.868;2023-08-06T23:34:00;97442.63;;;12.94;100.00
69911;BME280;63555;49.920;17.868;2023-08-06T23:39:00;97441.47;;;12.96;100.00
69911;BME280;63555;49.920;17.868;2023-08-06T23:44:00;97447.25;;;13.00;100.00
69911;BME280;63555;49.920;17.868;2023-08-06T23:49:01;97450.91;;;12.99;100.00
69911;BME280;63555;49.920;17.868;2023-08-06T23:54:01;97457.84;;;13.00;100.00
69911;BME280;63555;49.920;17.868;2023-08-06T23:59:01;97456.19;;;12.99;100.00
